sensor_id;sensor_type;location;lat;lon;timestamp;temperature;humidity
19799;DHT22;10059;59.850;10.454;2023-03-13T00:00:47;-1.30;99.90
19799;DHT22;10059;59.850;10.454;2023-03-13T00:03:15;-1.20;99.90
19799;DHT22;10059;59.850;10.454;2023-03-13T00:05:42;-1.20;99.90
19799;DHT22;10059;59.850;10.454;2023-03-13T00:08:09;-1.20;99.90
19799;DHT22;10059;59.850;10.454;2023-03-13T00:10:36;-1.20;99.90
19799;DHT22;10059;59.850;10.454;2023-03-13T00:13:03;-1.20;99.90
19799;DHT22;10059;59.850;10.454;2023-03-13T00:15:30;-1.20;99.90
19799;DHT22;10059;59.850;10.454;2023-03-13T00:17:57;-1.10;99.90
19799;DHT22;10059;59.850;10.454;2023-03-13T00:20:25;-1.30;99.90
19799;DHT22;10059;59.850;10.454;2023-03-13T00:22:52;-1.20;99.90
19799;DHT22;10059;59.850;10.454;2023-03-13T00:25:19;-1.20;99.90
19799;DHT22;10059;59.850;10.454;2023-03-13T00:27:46;-1.30;99.90
19799;DHT22;10059;59.850;10.454;2023-03-13T00:30:14;-1.30;99.90
19799;DHT22;10059;59.850;10.454;2023-03-13T00:32:41;-1.30;99.90
19799;DHT22;10059;59.850;10.454;2023-03-13T00:35:08;-1.30;99.90
19799;DHT22;10059;59.850;10.454;2023-03-13T00:37:36;-1.20;99.90
19799;DHT22;10059;59.850;10.454;2023-03-13T00:40:04;-1.20;99.90
19799;DHT22;10059;59.850;10.454;2023-03-13T00:42:32;-1.10;99.90
19799;DHT22;10059;59.850;10.454;2023-03-13T00:44:59;-1.00;99.90
19799;DHT22;10059;59.850;10.454;2023-03-13T00:47:26;-1.00;99.90
19799;DHT22;10059;59.850;10.454;2023-03-13T00:49:53;-1.10;99.90
19799;DHT22;10059;59.850;10.454;2023-03-13T00:52:20;-1.00;99.90
19799;DHT22;10059;59.850;10.454;2023-03-13T00:54:49;-1.10;99.90
19799;DHT22;10059;59.850;10.454;2023-03-13T00:57:16;-1.00;99.90
19799;DHT22;10059;59.850;10.454;2023-03-13T00:59:43;-1.00;99.90
19799;DHT22;10059;59.850;10.454;2023-03-13T01:02:09;-1.10;99.90
19799;DHT22;10059;59.850;10.454;2023-03-13T01:04:36;-1.10;99.90
19799;DHT22;10059;59.850;10.454;2023-03-13T01:07:03;-1.20;99.90
19799;DHT22;10059;59.850;10.454;2023-03-13T01:09:30;-1.20;99.90
19799;DHT22;10059;59.850;10.454;2023-03-13T01:11:58;-1.20;99.90
19799;DHT22;10059;59.850;10.454;2023-03-13T01:14:25;-1.20;99.90
19799;DHT22;10059;59.850;10.454;2023-03-13T01:16:52;-1.20;99.90
19799;DHT22;10059;59.850;10.454;2023-03-13T01:19:18;-1.20;99.90
19799;DHT22;10059;59.850;10.454;2023-03-13T01:21:45;-1.10;99.90
19799;DHT22;10059;59.850;10.454;2023-03-13T01:24:13;-1.10;99.90
19799;DHT22;10059;59.850;10.454;2023-03-13T01:26:39;-1.10;99.90
19799;DHT22;10059;59.850;10.454;2023-03-13T01:29:08;-1.00;99.90
19799;DHT22;10059;59.850;10.454;2023-03-13T01:31:35;-1.00;99.90
19799;DHT22;10059;59.850;10.454;2023-03-13T01:34:04;-1.00;99.90
19799;DHT22;10059;59.850;10.454;2023-03-13T01:36:31;-1.10;99.90
19799;DHT22;10059;59.850;10.454;2023-03-13T01:38:59;-1.10;99.90
19799;DHT22;10059;59.850;10.454;2023-03-13T01:41:28;-1.20;99.90
19799;DHT22;10059;59.850;10.454;2023-03-13T01:43:55;-1.20;99.90
19799;DHT22;10059;59.850;10.454;2023-03-13T01:46:24;-1.10;99.90
19799;DHT22;10059;59.850;10.454;2023-03-13T01:48:56;-1.10;99.90
19799;DHT22;10059;59.850;10.454;2023-03-13T01:51:26;-1.10;99.90
19799;DHT22;10059;59.850;10.454;2023-03-13T01:53:59;-1.10;99.90
19799;DHT22;10059;59.850;10.454;2023-03-13T01:56:33;-1.00;99.90
19799;DHT22;10059;59.850;10.454;2023-03-13T01:59:01;-1.00;99.90
19799;DHT22;10059;59.850;10.454;2023-03-13T02:01:30;-0.80;99.90
19799;DHT22;10059;59.850;10.454;2023-03-13T02:03:57;-0.90;99.90
19799;DHT22;10059;59.850;10.454;2023-03-13T02:06:27;-0.90;99.90
19799;DHT22;10059;59.850;10.454;2023-03-13T02:08:57;-1.00;99.90
19799;DHT22;10059;59.850;10.454;2023-03-13T02:11:30;-0.90;99.90
19799;DHT22;10059;59.850;10.454;2023-03-13T02:13:59;-1.00;99.90
19799;DHT22;10059;59.850;10.454;2023-03-13T02:16:27;-0.90;99.90
19799;DHT22;10059;59.850;10.454;2023-03-13T02:18:56;-0.90;99.90
19799;DHT22;10059;59.850;10.454;2023-03-13T02:21:35;-0.90;99.90
19799;DHT22;10059;59.850;10.454;2023-03-13T02:24:12;-1.00;99.90
19799;DHT22;10059;59.850;10.454;2023-03-13T02:26:41;-1.00;99.90
19799;DHT22;10059;59.850;10.454;2023-03-13T02:29:10;-1.00;99.90
19799;DHT22;10059;59.850;10.454;2023-03-13T02:31:43;-0.90;99.90
19799;DHT22;10059;59.850;10.454;2023-03-13T02:34:12;-0.90;99.90
19799;DHT22;10059;59.850;10.454;2023-03-13T02:36:40;-0.90;99.90
19799;DHT22;10059;59.850;10.454;2023-03-13T02:39:08;-0.90;99.90
19799;DHT22;10059;59.850;10.454;2023-03-13T02:41:37;-0.80;99.90
19799;DHT22;10059;59.850;10.454;2023-03-13T02:44:05;-0.90;99.90
19799;DHT22;10059;59.850;10.454;2023-03-13T02:46:43;-0.90;99.90
19799;DHT22;10059;59.850;10.454;2023-03-13T02:49:19;-0.90;99.90
19799;DHT22;10059;59.850;10.454;2023-03-13T02:51:47;-0.90;99.90
19799;DHT22;10059;59.850;10.454;2023-03-13T02:54:16;-1.00;99.90
19799;DHT22;10059;59.850;10.454;2023-03-13T02:56:46;-1.10;99.90
19799;DHT22;10059;59.850;10.454;2023-03-13T02:59:16;-1.00;99.90
19799;DHT22;10059;59.850;10.454;2023-03-13T03:01:43;-1.00;99.90
19799;DHT22;10059;59.850;10.454;2023-03-13T03:04:10;-1.00;99.90
19799;DHT22;10059;59.850;10.454;2023-03-13T03:06:37;-1.00;99.90
19799;DHT22;10059;59.850;10.454;2023-03-13T03:09:04;-0.90;99.90
19799;DHT22;10059;59.850;10.454;2023-03-13T03:11:31;-0.80;99.90
19799;DHT22;10059;59.850;10.454;2023-03-13T03:13:58;-0.80;99.90
19799;DHT22;10059;59.850;10.454;2023-03-13T03:16:26;-0.90;99.90
19799;DHT22;10059;59.850;10.454;2023-03-13T03:18:53;-0.80;99.90
19799;DHT22;10059;59.850;10.454;2023-03-13T03:21:20;-0.80;99.90
19799;DHT22;10059;59.850;10.454;2023-03-13T03:23:48;-0.80;99.90
19799;DHT22;10059;59.850;10.454;2023-03-13T03:26:16;-0.70;99.90
19799;DHT22;10059;59.850;10.454;2023-03-13T03:28:43;-0.80;99.90
19799;DHT22;10059;59.850;10.454;2023-03-13T03:31:11;-0.80;99.90
19799;DHT22;10059;59.850;10.454;2023-03-13T03:33:41;-0.70;99.90
19799;DHT22;10059;59.850;10.454;2023-03-13T03:36:10;-0.60;99.90
19799;DHT22;10059;59.850;10.454;2023-03-13T03:38:38;-0.60;99.90
19799;DHT22;10059;59.850;10.454;2023-03-13T03:41:05;-0.60;99.90
19799;DHT22;10059;59.850;10.454;2023-03-13T03:43:32;-0.70;99.90
19799;DHT22;10059;59.850;10.454;2023-03-13T03:45:59;-0.70;99.90
19799;DHT22;10059;59.850;10.454;2023-03-13T03:48:26;-0.70;99.90
19799;DHT22;10059;59.850;10.454;2023-03-13T03:50:54;-0.80;99.90
19799;DHT22;10059;59.850;10.454;2023-03-13T03:53:21;-0.80;99.90
19799;DHT22;10059;59.850;10.454;2023-03-13T03:55:48;-0.90;99.90
19799;DHT22;10059;59.850;10.454;2023-03-13T03:58:15;-0.80;99.90
19799;DHT22;10059;59.850;10.454;2023-03-13T04:00:42;-0.90;99.90
19799;DHT22;10059;59.850;10.454;2023-03-13T04:03:10;-0.80;99.90
19799;DHT22;10059;59.850;10.454;2023-03-13T04:05:37;-0.80;99.90
19799;DHT22;10059;59.850;10.454;2023-03-13T04:08:06;-0.70;99.90
19799;DHT22;10059;59.850;10.454;2023-03-13T04:10:33;-0.60;99.90
19799;DHT22;10059;59.850;10.454;2023-03-13T04:13:00;-0.60;99.90
19799;DHT22;10059;59.850;10.454;2023-03-13T04:15:27;-0.60;99.90
19799;DHT22;10059;59.850;10.454;2023-03-13T04:17:54;-0.50;99.90
19799;DHT22;10059;59.850;10.454;2023-03-13T04:20:21;-0.50;99.90
19799;DHT22;10059;59.850;10.454;2023-03-13T04:22:48;-0.50;99.90
19799;DHT22;10059;59.850;10.454;2023-03-13T04:25:16;-0.50;99.90
19799;DHT22;10059;59.850;10.454;2023-03-13T04:27:43;-0.50;99.90
19799;DHT22;10059;59.850;10.454;2023-03-13T04:30:10;-0.40;99.90
19799;DHT22;10059;59.850;10.454;2023-03-13T04:32:37;-0.60;99.90
19799;DHT22;10059;59.850;10.454;2023-03-13T04:35:04;-0.70;99.90
19799;DHT22;10059;59.850;10.454;2023-03-13T04:37:31;-0.70;99.90
19799;DHT22;10059;59.850;10.454;2023-03-13T04:39:58;-0.80;99.90
19799;DHT22;10059;59.850;10.454;2023-03-13T04:42:27;-0.80;99.90
19799;DHT22;10059;59.850;10.454;2023-03-13T04:44:53;-0.80;99.90
19799;DHT22;10059;59.850;10.454;2023-03-13T04:47:20;-0.80;99.90
19799;DHT22;10059;59.850;10.454;2023-03-13T04:49:47;-0.80;99.90
19799;DHT22;10059;59.850;10.454;2023-03-13T04:52:14;-0.80;99.90
19799;DHT22;10059;59.850;10.454;2023-03-13T04:54:41;-0.70;99.90
19799;DHT22;10059;59.850;10.454;2023-03-13T04:57:07;-0.70;99.90
19799;DHT22;10059;59.850;10.454;2023-03-13T04:59:35;-0.60;99.90
19799;DHT22;10059;59.850;10.454;2023-03-13T05:02:02;-0.50;99.90
19799;DHT22;10059;59.850;10.454;2023-03-13T05:04:29;-0.60;99.90
19799;DHT22;10059;59.850;10.454;2023-03-13T05:06:56;-0.70;99.90
19799;DHT22;10059;59.850;10.454;2023-03-13T05:09:23;-0.60;99.90
19799;DHT22;10059;59.850;10.454;2023-03-13T05:11:50;-0.50;99.90
19799;DHT22;10059;59.850;10.454;2023-03-13T05:14:17;-0.60;99.90
19799;DHT22;10059;59.850;10.454;2023-03-13T05:16:45;-0.60;99.90
19799;DHT22;10059;59.850;10.454;2023-03-13T05:19:12;-0.60;99.90
19799;DHT22;10059;59.850;10.454;2023-03-13T05:21:39;-0.60;99.90
19799;DHT22;10059;59.850;10.454;2023-03-13T05:24:06;-0.50;99.90
19799;DHT22;10059;59.850;10.454;2023-03-13T05:26:33;-0.50;99.90
19799;DHT22;10059;59.850;10.454;2023-03-13T05:28:59;-0.60;99.90
19799;DHT22;10059;59.850;10.454;2023-03-13T05:31:26;-0.50;99.90
19799;DHT22;10059;59.850;10.454;2023-03-13T05:33:54;-0.50;99.90
19799;DHT22;10059;59.850;10.454;2023-03-13T05:36:21;-0.50;99.90
19799;DHT22;10059;59.850;10.454;2023-03-13T05:38:48;-0.50;99.90
19799;DHT22;10059;59.850;10.454;2023-03-13T05:41:15;-0.70;99.90
19799;DHT22;10059;59.850;10.454;2023-03-13T05:43:42;-0.60;99.90
19799;DHT22;10059;59.850;10.454;2023-03-13T05:46:08;-0.60;99.90
19799;DHT22;10059;59.850;10.454;2023-03-13T05:48:35;-0.60;99.90
19799;DHT22;10059;59.850;10.454;2023-03-13T05:51:04;-0.50;99.90
19799;DHT22;10059;59.850;10.454;2023-03-13T05:53:31;-0.50;99.90
19799;DHT22;10059;59.850;10.454;2023-03-13T05:55:57;-0.50;99.90
19799;DHT22;10059;59.850;10.454;2023-03-13T05:58:24;-0.40;99.90
19799;DHT22;10059;59.850;10.454;2023-03-13T06:00:51;-0.50;99.90
19799;DHT22;10059;59.850;10.454;2023-03-13T06:03:18;-0.50;99.90
19799;DHT22;10059;59.850;10.454;2023-03-13T06:05:44;-0.50;99.90
19799;DHT22;10059;59.850;10.454;2023-03-13T06:08:13;-0.50;99.90
19799;DHT22;10059;59.850;10.454;2023-03-13T06:10:39;-0.50;99.90
19799;DHT22;10059;59.850;10.454;2023-03-13T06:13:06;-0.50;99.90
19799;DHT22;10059;59.850;10.454;2023-03-13T06:15:33;-0.50;99.90
19799;DHT22;10059;59.850;10.454;2023-03-13T06:18:00;-0.50;99.90
19799;DHT22;10059;59.850;10.454;2023-03-13T06:20:27;-0.40;99.90
19799;DHT22;10059;59.850;10.454;2023-03-13T06:22:54;-0.50;99.90
19799;DHT22;10059;59.850;10.454;2023-03-13T06:25:22;-0.50;99.90
19799;DHT22;10059;59.850;10.454;2023-03-13T06:27:49;-0.40;99.90
19799;DHT22;10059;59.850;10.454;2023-03-13T06:30:17;-0.30;99.90
19799;DHT22;10059;59.850;10.454;2023-03-13T06:32:44;-0.30;99.90
19799;DHT22;10059;59.850;10.454;2023-03-13T06:35:10;-0.30;99.90
19799;DHT22;10059;59.850;10.454;2023-03-13T06:37:37;-0.20;99.90
19799;DHT22;10059;59.850;10.454;2023-03-13T06:40:05;-0.20;99.90
19799;DHT22;10059;59.850;10.454;2023-03-13T06:42:34;-0.20;99.90
19799;DHT22;10059;59.850;10.454;2023-03-13T06:45:01;-0.20;99.90
19799;DHT22;10059;59.850;10.454;2023-03-13T06:47:29;-0.20;99.90
19799;DHT22;10059;59.850;10.454;2023-03-13T06:49:56;-0.20;99.90
19799;DHT22;10059;59.850;10.454;2023-03-13T06:52:23;-0.20;99.90
19799;DHT22;10059;59.850;10.454;2023-03-13T06:54:50;-0.30;99.90
19799;DHT22;10059;59.850;10.454;2023-03-13T06:57:17;-0.40;99.90
19799;DHT22;10059;59.850;10.454;2023-03-13T06:59:45;-0.30;99.90
19799;DHT22;10059;59.850;10.454;2023-03-13T07:02:12;-0.20;99.90
19799;DHT22;10059;59.850;10.454;2023-03-13T07:04:39;-0.20;99.90
19799;DHT22;10059;59.850;10.454;2023-03-13T07:07:06;-0.30;99.90
19799;DHT22;10059;59.850;10.454;2023-03-13T07:09:33;-0.20;99.90
19799;DHT22;10059;59.850;10.454;2023-03-13T07:12:00;-0.20;99.90
19799;DHT22;10059;59.850;10.454;2023-03-13T07:14:28;-0.30;99.90
19799;DHT22;10059;59.850;10.454;2023-03-13T07:16:57;-0.20;99.90
19799;DHT22;10059;59.850;10.454;2023-03-13T07:19:24;-0.20;99.90
19799;DHT22;10059;59.850;10.454;2023-03-13T07:21:52;-0.20;99.90
19799;DHT22;10059;59.850;10.454;2023-03-13T07:24:19;-0.20;99.90
19799;DHT22;10059;59.850;10.454;2023-03-13T07:26:46;-0.20;99.90
19799;DHT22;10059;59.850;10.454;2023-03-13T07:29:13;-0.20;99.90
19799;DHT22;10059;59.850;10.454;2023-03-13T07:31:40;-0.30;99.90
19799;DHT22;10059;59.850;10.454;2023-03-13T07:34:08;-0.30;99.90
19799;DHT22;10059;59.850;10.454;2023-03-13T07:36:35;-0.20;99.90
19799;DHT22;10059;59.850;10.454;2023-03-13T07:39:02;-0.20;99.90
19799;DHT22;10059;59.850;10.454;2023-03-13T07:41:29;-0.20;99.90
19799;DHT22;10059;59.850;10.454;2023-03-13T07:43:56;-0.10;99.90
19799;DHT22;10059;59.850;10.454;2023-03-13T07:46:23;-0.10;99.90
19799;DHT22;10059;59.850;10.454;2023-03-13T07:48:49;0.00;99.90
19799;DHT22;10059;59.850;10.454;2023-03-13T07:51:20;0.00;99.90
19799;DHT22;10059;59.850;10.454;2023-03-13T07:53:47;0.00;99.90
19799;DHT22;10059;59.850;10.454;2023-03-13T07:56:16;0.20;99.90
19799;DHT22;10059;59.850;10.454;2023-03-13T07:58:44;0.20;99.90
19799;DHT22;10059;59.850;10.454;2023-03-13T08:01:13;0.30;99.90
19799;DHT22;10059;59.850;10.454;2023-03-13T08:03:40;0.30;99.90
19799;DHT22;10059;59.850;10.454;2023-03-13T08:06:09;0.20;99.90
19799;DHT22;10059;59.850;10.454;2023-03-13T08:08:38;0.20;99.90
19799;DHT22;10059;59.850;10.454;2023-03-13T08:11:08;0.10;99.90
19799;DHT22;10059;59.850;10.454;2023-03-13T08:13:36;0.10;99.90
19799;DHT22;10059;59.850;10.454;2023-03-13T08:16:04;0.00;99.90
19799;DHT22;10059;59.850;10.454;2023-03-13T08:18:32;0.00;99.90
19799;DHT22;10059;59.850;10.454;2023-03-13T08:21:01;0.10;99.90
19799;DHT22;10059;59.850;10.454;2023-03-13T08:23:28;0.10;99.90
19799;DHT22;10059;59.850;10.454;2023-03-13T08:26:00;0.10;99.90
19799;DHT22;10059;59.850;10.454;2023-03-13T08:28:27;0.30;99.90
19799;DHT22;10059;59.850;10.454;2023-03-13T08:30:54;0.40;99.90
19799;DHT22;10059;59.850;10.454;2023-03-13T08:33:21;0.40;99.90
19799;DHT22;10059;59.850;10.454;2023-03-13T08:35:48;0.20;99.90
19799;DHT22;10059;59.850;10.454;2023-03-13T08:38:15;0.20;99.90
19799;DHT22;10059;59.850;10.454;2023-03-13T08:40:43;0.30;99.90
19799;DHT22;10059;59.850;10.454;2023-03-13T08:43:11;0.30;99.90
19799;DHT22;10059;59.850;10.454;2023-03-13T08:45:37;0.40;99.90
19799;DHT22;10059;59.850;10.454;2023-03-13T08:48:05;0.30;99.90
19799;DHT22;10059;59.850;10.454;2023-03-13T08:50:31;0.30;99.90
19799;DHT22;10059;59.850;10.454;2023-03-13T08:52:58;0.30;99.90
19799;DHT22;10059;59.850;10.454;2023-03-13T08:55:25;0.40;99.90
19799;DHT22;10059;59.850;10.454;2023-03-13T08:57:52;0.50;99.90
19799;DHT22;10059;59.850;10.454;2023-03-13T09:00:21;0.50;99.90
19799;DHT22;10059;59.850;10.454;2023-03-13T09:02:47;0.40;99.90
19799;DHT22;10059;59.850;10.454;2023-03-13T09:05:14;0.50;99.90
19799;DHT22;10059;59.850;10.454;2023-03-13T09:07:41;0.40;99.90
19799;DHT22;10059;59.850;10.454;2023-03-13T09:10:09;0.30;99.90
19799;DHT22;10059;59.850;10.454;2023-03-13T09:12:36;0.40;99.90
19799;DHT22;10059;59.850;10.454;2023-03-13T09:15:03;0.40;99.90
19799;DHT22;10059;59.850;10.454;2023-03-13T09:17:31;0.30;99.90
19799;DHT22;10059;59.850;10.454;2023-03-13T09:19:58;0.40;99.90
19799;DHT22;10059;59.850;10.454;2023-03-13T09:22:25;0.30;99.90
19799;DHT22;10059;59.850;10.454;2023-03-13T09:24:52;0.50;99.90
19799;DHT22;10059;59.850;10.454;2023-03-13T09:27:19;0.70;99.90
19799;DHT22;10059;59.850;10.454;2023-03-13T09:29:46;0.60;99.90
19799;DHT22;10059;59.850;10.454;2023-03-13T09:32:12;0.80;99.90
19799;DHT22;10059;59.850;10.454;2023-03-13T09:34:41;0.80;99.90
19799;DHT22;10059;59.850;10.454;2023-03-13T09:37:07;0.60;99.90
19799;DHT22;10059;59.850;10.454;2023-03-13T09:39:34;0.80;99.90
19799;DHT22;10059;59.850;10.454;2023-03-13T09:42:07;0.90;99.90
19799;DHT22;10059;59.850;10.454;2023-03-13T09:44:40;0.80;99.90
19799;DHT22;10059;59.850;10.454;2023-03-13T09:47:13;0.80;99.90
19799;DHT22;10059;59.850;10.454;2023-03-13T09:49:48;0.70;99.90
19799;DHT22;10059;59.850;10.454;2023-03-13T09:52:21;0.80;99.90
19799;DHT22;10059;59.850;10.454;2023-03-13T09:54:51;0.90;99.90
19799;DHT22;10059;59.850;10.454;2023-03-13T09:57:24;1.10;99.90
19799;DHT22;10059;59.850;10.454;2023-03-13T09:59:56;1.00;99.90
19799;DHT22;10059;59.850;10.454;2023-03-13T10:02:29;1.10;99.90
19799;DHT22;10059;59.850;10.454;2023-03-13T10:05:13;1.00;99.90
19799;DHT22;10059;59.850;10.454;2023-03-13T10:07:40;1.00;99.90
19799;DHT22;10059;59.850;10.454;2023-03-13T10:10:13;1.10;99.90
19799;DHT22;10059;59.850;10.454;2023-03-13T10:12:44;0.80;99.90
19799;DHT22;10059;59.850;10.454;2023-03-13T10:15:32;0.90;99.90
19799;DHT22;10059;59.850;10.454;2023-03-13T10:17:59;1.10;99.90
19799;DHT22;10059;59.850;10.454;2023-03-13T10:20:34;1.10;99.90
19799;DHT22;10059;59.850;10.454;2023-03-13T10:23:05;1.00;99.90
19799;DHT22;10059;59.850;10.454;2023-03-13T10:25:33;1.00;99.90
19799;DHT22;10059;59.850;10.454;2023-03-13T10:28:01;0.90;99.90
19799;DHT22;10059;59.850;10.454;2023-03-13T10:30:29;1.00;99.90
19799;DHT22;10059;59.850;10.454;2023-03-13T10:32:58;1.00;99.90
19799;DHT22;10059;59.850;10.454;2023-03-13T10:35:33;1.20;99.90
19799;DHT22;10059;59.850;10.454;2023-03-13T10:38:07;1.10;99.90
19799;DHT22;10059;59.850;10.454;2023-03-13T10:40:35;1.20;99.90
19799;DHT22;10059;59.850;10.454;2023-03-13T10:43:03;1.20;99.90
19799;DHT22;10059;59.850;10.454;2023-03-13T10:45:33;1.10;99.90
19799;DHT22;10059;59.850;10.454;2023-03-13T10:48:03;1.00;99.90
19799;DHT22;10059;59.850;10.454;2023-03-13T10:50:34;1.10;99.90
19799;DHT22;10059;59.850;10.454;2023-03-13T10:53:20;1.20;99.90
19799;DHT22;10059;59.850;10.454;2023-03-13T10:55:48;1.10;99.90
19799;DHT22;10059;59.850;10.454;2023-03-13T10:58:18;1.20;99.90
19799;DHT22;10059;59.850;10.454;2023-03-13T11:00:46;1.20;99.90
19799;DHT22;10059;59.850;10.454;2023-03-13T11:03:16;1.50;99.90
19799;DHT22;10059;59.850;10.454;2023-03-13T11:05:54;1.40;99.90
19799;DHT22;10059;59.850;10.454;2023-03-13T11:08:23;1.40;99.90
19799;DHT22;10059;59.850;10.454;2023-03-13T11:10:53;1.40;99.90
19799;DHT22;10059;59.850;10.454;2023-03-13T11:13:27;1.50;99.90
19799;DHT22;10059;59.850;10.454;2023-03-13T11:15:57;1.40;99.90
19799;DHT22;10059;59.850;10.454;2023-03-13T11:18:29;1.40;99.90
19799;DHT22;10059;59.850;10.454;2023-03-13T11:21:00;1.40;99.90
19799;DHT22;10059;59.850;10.454;2023-03-13T11:23:31;1.40;99.90
19799;DHT22;10059;59.850;10.454;2023-03-13T11:26:07;1.60;99.90
19799;DHT22;10059;59.850;10.454;2023-03-13T11:28:45;1.70;99.90
19799;DHT22;10059;59.850;10.454;2023-03-13T11:31:18;1.50;99.90
19799;DHT22;10059;59.850;10.454;2023-03-13T11:33:50;1.40;99.90
19799;DHT22;10059;59.850;10.454;2023-03-13T11:36:27;1.30;99.90
19799;DHT22;10059;59.850;10.454;2023-03-13T11:39:02;1.30;99.90
19799;DHT22;10059;59.850;10.454;2023-03-13T11:41:39;1.40;99.90
19799;DHT22;10059;59.850;10.454;2023-03-13T11:44:22;1.40;99.90
19799;DHT22;10059;59.850;10.454;2023-03-13T11:47:00;1.50;99.90
19799;DHT22;10059;59.850;10.454;2023-03-13T11:49:42;1.40;99.90
19799;DHT22;10059;59.850;10.454;2023-03-13T11:52:27;1.50;99.90
19799;DHT22;10059;59.850;10.454;2023-03-13T11:55:12;1.40;99.90
19799;DHT22;10059;59.850;10.454;2023-03-13T11:57:50;1.30;99.90
19799;DHT22;10059;59.850;10.454;2023-03-13T12:00:23;1.30;99.90
19799;DHT22;10059;59.850;10.454;2023-03-13T12:02:58;1.40;99.90
19799;DHT22;10059;59.850;10.454;2023-03-13T12:05:42;1.50;99.90
19799;DHT22;10059;59.850;10.454;2023-03-13T12:08:17;1.50;99.90
19799;DHT22;10059;59.850;10.454;2023-03-13T12:10:46;1.60;99.90
19799;DHT22;10059;59.850;10.454;2023-03-13T12:13:17;1.50;99.90
19799;DHT22;10059;59.850;10.454;2023-03-13T12:15:48;1.50;99.90
19799;DHT22;10059;59.850;10.454;2023-03-13T12:18:19;1.60;99.90
19799;DHT22;10059;59.850;10.454;2023-03-13T12:20:53;1.70;99.90
19799;DHT22;10059;59.850;10.454;2023-03-13T12:23:29;1.50;99.90
19799;DHT22;10059;59.850;10.454;2023-03-13T12:26:02;1.50;99.90
19799;DHT22;10059;59.850;10.454;2023-03-13T12:28:34;1.50;99.90
19799;DHT22;10059;59.850;10.454;2023-03-13T12:31:16;1.60;99.90
19799;DHT22;10059;59.850;10.454;2023-03-13T12:33:49;1.60;99.90
19799;DHT22;10059;59.850;10.454;2023-03-13T12:36:21;1.60;99.90
19799;DHT22;10059;59.850;10.454;2023-03-13T12:38:55;1.60;99.90
19799;DHT22;10059;59.850;10.454;2023-03-13T12:41:27;1.50;99.90
19799;DHT22;10059;59.850;10.454;2023-03-13T12:43:56;1.40;99.90
19799;DHT22;10059;59.850;10.454;2023-03-13T12:46:38;1.40;99.90
19799;DHT22;10059;59.850;10.454;2023-03-13T12:55:18;1.30;99.90
19799;DHT22;10059;59.850;10.454;2023-03-13T12:58:09;1.40;99.90
19799;DHT22;10059;59.850;10.454;2023-03-13T13:00:40;1.40;99.90
19799;DHT22;10059;59.850;10.454;2023-03-13T13:03:18;1.40;99.90
19799;DHT22;10059;59.850;10.454;2023-03-13T13:06:02;1.50;99.90
19799;DHT22;10059;59.850;10.454;2023-03-13T13:08:34;1.50;99.90
19799;DHT22;10059;59.850;10.454;2023-03-13T13:17:37;1.40;99.90
19799;DHT22;10059;59.850;10.454;2023-03-13T13:20:45;1.30;99.90
19799;DHT22;10059;59.850;10.454;2023-03-13T13:23:36;1.20;99.90
19799;DHT22;10059;59.850;10.454;2023-03-13T13:32:39;1.20;99.90
19799;DHT22;10059;59.850;10.454;2023-03-13T13:35:31;1.30;99.90
19799;DHT22;10059;59.850;10.454;2023-03-13T13:38:29;1.40;99.90
19799;DHT22;10059;59.850;10.454;2023-03-13T13:41:04;1.20;99.90
19799;DHT22;10059;59.850;10.454;2023-03-13T13:43:32;1.30;99.90
19799;DHT22;10059;59.850;10.454;2023-03-13T13:46:02;1.30;99.90
19799;DHT22;10059;59.850;10.454;2023-03-13T13:48:33;1.30;99.90
19799;DHT22;10059;59.850;10.454;2023-03-13T13:51:24;1.30;99.90
19799;DHT22;10059;59.850;10.454;2023-03-13T13:53:52;1.40;99.90
19799;DHT22;10059;59.850;10.454;2023-03-13T13:56:50;1.40;99.90
19799;DHT22;10059;59.850;10.454;2023-03-13T13:59:35;1.40;99.90
19799;DHT22;10059;59.850;10.454;2023-03-13T14:02:14;1.50;99.90
19799;DHT22;10059;59.850;10.454;2023-03-13T14:04:47;1.50;99.90
19799;DHT22;10059;59.850;10.454;2023-03-13T14:07:17;1.50;99.90
19799;DHT22;10059;59.850;10.454;2023-03-13T14:09:49;1.40;99.90
19799;DHT22;10059;59.850;10.454;2023-03-13T14:12:25;1.30;99.90
19799;DHT22;10059;59.850;10.454;2023-03-13T14:15:10;1.30;99.90
19799;DHT22;10059;59.850;10.454;2023-03-13T14:17:40;1.40;99.90
19799;DHT22;10059;59.850;10.454;2023-03-13T14:20:30;1.50;99.90
19799;DHT22;10059;59.850;10.454;2023-03-13T14:22:59;1.50;99.90
19799;DHT22;10059;59.850;10.454;2023-03-13T14:25:27;1.40;99.90
19799;DHT22;10059;59.850;10.454;2023-03-13T14:28:05;1.40;99.90
19799;DHT22;10059;59.850;10.454;2023-03-13T14:30:42;1.40;99.90
19799;DHT22;10059;59.850;10.454;2023-03-13T14:33:09;1.50;99.90
19799;DHT22;10059;59.850;10.454;2023-03-13T14:35:38;1.50;99.90
19799;DHT22;10059;59.850;10.454;2023-03-13T14:38:06;1.60;99.90
19799;DHT22;10059;59.850;10.454;2023-03-13T14:40:36;1.70;99.90
19799;DHT22;10059;59.850;10.454;2023-03-13T14:43:04;1.80;99.90
19799;DHT22;10059;59.850;10.454;2023-03-13T14:45:42;1.70;99.90
19799;DHT22;10059;59.850;10.454;2023-03-13T14:48:15;1.70;99.90
19799;DHT22;10059;59.850;10.454;2023-03-13T14:50:46;1.60;99.90
19799;DHT22;10059;59.850;10.454;2023-03-13T14:53:16;1.70;99.90
19799;DHT22;10059;59.850;10.454;2023-03-13T14:55:43;1.60;99.90
19799;DHT22;10059;59.850;10.454;2023-03-13T14:58:25;1.70;99.90
19799;DHT22;10059;59.850;10.454;2023-03-13T15:00:53;1.70;99.90
19799;DHT22;10059;59.850;10.454;2023-03-13T15:03:23;1.80;99.90
19799;DHT22;10059;59.850;10.454;2023-03-13T15:06:16;1.90;99.90
19799;DHT22;10059;59.850;10.454;2023-03-13T15:08:44;2.00;99.90
19799;DHT22;10059;59.850;10.454;2023-03-13T15:11:26;2.10;99.90
19799;DHT22;10059;59.850;10.454;2023-03-13T15:13:55;2.10;99.90
19799;DHT22;10059;59.850;10.454;2023-03-13T15:16:24;2.20;99.90
19799;DHT22;10059;59.850;10.454;2023-03-13T15:18:52;2.40;99.90
19799;DHT22;10059;59.850;10.454;2023-03-13T15:21:23;2.40;99.90
19799;DHT22;10059;59.850;10.454;2023-03-13T15:23:52;2.30;99.90
19799;DHT22;10059;59.850;10.454;2023-03-13T15:26:19;2.20;99.90
19799;DHT22;10059;59.850;10.454;2023-03-13T15:28:46;2.30;99.90
19799;DHT22;10059;59.850;10.454;2023-03-13T15:31:13;2.20;99.90
19799;DHT22;10059;59.850;10.454;2023-03-13T15:33:40;2.10;99.90
19799;DHT22;10059;59.850;10.454;2023-03-13T15:36:08;2.20;99.90
19799;DHT22;10059;59.850;10.454;2023-03-13T15:38:37;2.30;99.90
19799;DHT22;10059;59.850;10.454;2023-03-13T15:41:04;2.20;99.90
19799;DHT22;10059;59.850;10.454;2023-03-13T15:43:34;2.10;99.90
19799;DHT22;10059;59.850;10.454;2023-03-13T15:46:01;2.00;99.90
19799;DHT22;10059;59.850;10.454;2023-03-13T15:48:30;2.10;99.90
19799;DHT22;10059;59.850;10.454;2023-03-13T15:50:58;2.00;99.90
19799;DHT22;10059;59.850;10.454;2023-03-13T15:53:28;2.00;99.90
19799;DHT22;10059;59.850;10.454;2023-03-13T15:55:58;2.10;99.90
19799;DHT22;10059;59.850;10.454;2023-03-13T15:58:26;2.20;99.90